Time;durP1;ratioP1;P1;durP2;ratioP2;P2;SDS_P1;SDS_P2;PMS_P1;PMS_P2;Temp;Humidity;BMP_temperature;BMP_pressure;BME280_temperature;BME280_humidity;BME280_pressure;Samples;Min_cycle;Max_cycle;Signal;HPM_P1;HPM_P2
2022/05/04 00:00:52;;;;;;;;;;;15.90;62.40;;;;;;5089797;28;19927;-74
2022/05/04 00:03:23;;;;;;;;;;;15.90;62.40;;;;;;5081090;28;20027;-75
2022/05/04 00:05:50;;;;;;;;;;;15.90;62.30;;;;;;5083501;28;20303;-76
2022/05/04 00:08:17;;;;;;;;;;;15.90;62.20;;;;;;5081171;28;20004;-74
2022/05/04 00:10:48;;;;;;;;;;;15.90;62.30;;;;;;5081778;28;19920;-76
2022/05/04 00:13:18;;;;;;;;;;;15.90;62.20;;;;;;5082111;28;19984;-74
2022/05/04 00:15:47;;;;;;;;;;;15.90;62.20;;;;;;5092116;28;20367;-74
2022/05/04 00:18:15;;;;;;;;;;;15.90;62.20;;;;;;5081187;28;19919;-74
2022/05/04 00:20:42;;;;;;;;;;;15.90;62.20;;;;;;5086657;28;19955;-76
2022/05/04 00:23:08;;;;;;;;;;;15.90;62.20;;;;;;5082651;27;19924;-74
2022/05/04 00:25:44;;;;;;;;;;;15.90;62.20;;;;;;5082823;28;20014;-74
2022/05/04 00:28:20;;;;;;;;;;;15.90;62.10;;;;;;5085466;28;19919;-76
2022/05/04 00:30:52;;;;;;;;;;;15.90;62.10;;;;;;5081166;28;19920;-76
2022/05/04 00:33:19;;;;;;;;;;;15.90;62.10;;;;;;5080694;28;20001;-76
2022/05/04 00:35:48;;;;;;;;;;;15.90;62.10;;;;;;5080218;28;19928;-75
2022/05/04 00:38:14;;;;;;;;;;;15.90;62.00;;;;;;5085876;28;19920;-76
2022/05/04 00:40:44;;;;;;;;;;;15.90;62.00;;;;;;5087276;28;19924;-74
2022/05/04 00:43:20;;;;;;;;;;;15.90;62.00;;;;;;5082873;28;20394;-76
2022/05/04 00:45:47;;;;;;;;;;;15.90;62.00;;;;;;5112367;27;19920;-74
2022/05/04 00:48:21;;;;;;;;;;;15.90;62.00;;;;;;5092809;28;19926;-76
2022/05/04 00:50:49;;;;;;;;;;;15.90;62.10;;;;;;5080186;28;19959;-74
2022/05/04 00:53:17;;;;;;;;;;;15.90;62.00;;;;;;5092092;28;19920;-75
2022/05/04 00:56:02;;;;;;;;;;;15.90;61.90;;;;;;5080859;28;19927;-77
2022/05/04 01:01:13;;;;;;;;;;;15.90;62.00;;;;;;5080354;28;20006;-76
2022/05/04 01:04:00;;;;;;;;;;;15.90;61.80;;;;;;5087558;28;19945;-76
2022/05/04 01:06:27;;;;;;;;;;;15.90;61.80;;;;;;5088618;28;20404;-75
2022/05/04 01:08:54;;;;;;;;;;;15.90;61.80;;;;;;5086579;28;19927;-75
2022/05/04 01:11:23;;;;;;;;;;;16.00;61.90;;;;;;5083340;28;19927;-74
2022/05/04 01:14:01;;;;;;;;;;;15.90;61.80;;;;;;5089119;28;20343;-75
2022/05/04 01:16:31;;;;;;;;;;;15.90;61.80;;;;;;5090163;28;19927;-76
2022/05/04 01:19:09;;;;;;;;;;;15.90;61.80;;;;;;5094023;28;19927;-75
2022/05/04 01:21:36;;;;;;;;;;;15.90;61.80;;;;;;5080340;28;19962;-77
2022/05/04 01:24:17;;;;;;;;;;;15.90;61.80;;;;;;5094866;28;19924;-74
2022/05/04 01:27:02;;;;;;;;;;;15.90;61.70;;;;;;5092382;28;19955;-76
2022/05/04 01:29:29;;;;;;;;;;;15.80;61.60;;;;;;5094294;28;19923;-76
2022/05/04 01:31:57;;;;;;;;;;;15.80;61.60;;;;;;5085441;28;20422;-74
2022/05/04 01:34:28;;;;;;;;;;;15.90;61.70;;;;;;5085081;28;20418;-76
2022/05/04 01:37:13;;;;;;;;;;;15.80;61.60;;;;;;5079618;28;19930;-76
2022/05/04 01:39:42;;;;;;;;;;;15.80;61.50;;;;;;5087317;28;19927;-74
2022/05/04 01:42:24;;;;;;;;;;;15.80;61.50;;;;;;5087900;28;19927;-73
2022/05/04 01:44:59;;;;;;;;;;;15.80;61.50;;;;;;5084761;28;20385;-76
2022/05/04 01:47:26;;;;;;;;;;;15.80;61.80;;;;;;5092101;28;19949;-74
2022/05/04 01:49:53;;;;;;;;;;;15.80;61.50;;;;;;5081311;28;19928;-74
2022/05/04 01:52:23;;;;;;;;;;;15.90;61.50;;;;;;5085213;28;19919;-74
2022/05/04 01:54:54;;;;;;;;;;;15.80;61.40;;;;;;5091974;28;20014;-74
2022/05/04 01:57:23;;;;;;;;;;;15.80;61.40;;;;;;5093980;28;19919;-75
2022/05/04 01:59:50;;;;;;;;;;;15.80;61.40;;;;;;5083493;28;19920;-74
2022/05/04 02:02:16;;;;;;;;;;;15.80;61.40;;;;;;5078826;28;20354;-76
2022/05/04 02:04:50;;;;;;;;;;;15.80;61.40;;;;;;5081483;28;19920;-75
2022/05/04 02:07:17;;;;;;;;;;;15.90;61.60;;;;;;5088797;27;20387;-75
2022/05/04 02:09:46;;;;;;;;;;;15.80;61.40;;;;;;5083291;28;19998;-75
2022/05/04 02:12:14;;;;;;;;;;;15.80;61.40;;;;;;5083494;28;19920;-76
2022/05/04 02:14:42;;;;;;;;;;;15.80;61.40;;;;;;5079781;27;20463;-76
2022/05/04 02:17:14;;;;;;;;;;;15.70;61.30;;;;;;5092234;27;19930;-76
2022/05/04 02:19:40;;;;;;;;;;;15.80;61.30;;;;;;5080381;28;19920;-76
2022/05/04 02:22:13;;;;;;;;;;;15.80;61.30;;;;;;5113197;27;19920;-74
2022/05/04 02:24:41;;;;;;;;;;;15.80;61.30;;;;;;5093861;28;19919;-75
2022/05/04 02:27:15;;;;;;;;;;;15.80;61.30;;;;;;5083099;27;19927;-74
2022/05/04 02:29:50;;;;;;;;;;;16.00;61.60;;;;;;5085143;28;19928;-73
2022/05/04 02:32:20;;;;;;;;;;;15.80;61.30;;;;;;5083507;28;19920;-74
2022/05/04 02:37:55;;;;;;;;;;;15.80;61.20;;;;;;5086263;28;22187;-74
2022/05/04 02:40:23;;;;;;;;;;;15.80;61.20;;;;;;5082397;27;20019;-76
2022/05/04 02:42:52;;;;;;;;;;;15.80;61.30;;;;;;5081601;28;19977;-76
2022/05/04 02:45:22;;;;;;;;;;;15.80;61.20;;;;;;5092772;28;19926;-76
2022/05/04 02:47:59;;;;;;;;;;;15.80;61.20;;;;;;5088939;28;20395;-76
2022/05/04 02:50:25;;;;;;;;;;;15.80;61.20;;;;;;5089686;27;20533;-74
2022/05/04 02:52:52;;;;;;;;;;;15.80;61.30;;;;;;5089324;28;20317;-74
2022/05/04 02:55:23;;;;;;;;;;;15.80;61.20;;;;;;5088738;28;19931;-74
2022/05/04 02:57:51;;;;;;;;;;;15.80;61.20;;;;;;5081731;28;19971;-75
2022/05/04 03:00:18;;;;;;;;;;;15.80;61.20;;;;;;5115229;27;19920;-75
2022/05/04 03:02:58;;;;;;;;;;;15.70;61.20;;;;;;5081569;27;19953;-74
2022/05/04 03:05:25;;;;;;;;;;;15.70;61.90;;;;;;5088381;27;19927;-74
2022/05/04 03:07:54;;;;;;;;;;;15.80;61.20;;;;;;5088411;28;19927;-74
2022/05/04 03:10:23;;;;;;;;;;;15.70;61.10;;;;;;5083078;28;19919;-75
2022/05/04 03:12:54;;;;;;;;;;;15.70;61.10;;;;;;5085007;28;20470;-75
2022/05/04 03:15:23;;;;;;;;;;;15.80;61.20;;;;;;5089060;27;19942;-75
2022/05/04 03:17:53;;;;;;;;;;;15.70;61.10;;;;;;5082940;28;20289;-73
2022/05/04 03:20:19;;;;;;;;;;;15.70;61.00;;;;;;5084371;27;19924;-73
2022/05/04 03:22:48;;;;;;;;;;;15.70;61.00;;;;;;5083764;28;19930;-74
2022/05/04 03:25:14;;;;;;;;;;;15.70;61.00;;;;;;5081721;27;19920;-75
2022/05/04 03:27:45;;;;;;;;;;;15.70;61.00;;;;;;5080623;27;20447;-75
2022/05/04 03:30:24;;;;;;;;;;;15.70;61.00;;;;;;5088260;27;20057;-74
2022/05/04 03:32:51;;;;;;;;;;;15.70;61.00;;;;;;5091882;28;19958;-73
2022/05/04 03:35:18;;;;;;;;;;;15.70;61.00;;;;;;5087484;28;19920;-74
2022/05/04 03:38:03;;;;;;;;;;;15.80;61.10;;;;;;5086867;27;19946;-74
2022/05/04 03:40:30;;;;;;;;;;;15.70;61.00;;;;;;5089905;27;19920;-74
2022/05/04 03:42:57;;;;;;;;;;;15.70;61.00;;;;;;5081891;28;19928;-75
2022/05/04 03:45:25;;;;;;;;;;;15.70;61.00;;;;;;5113925;27;19920;-75
2022/05/04 03:47:51;;;;;;;;;;;15.70;61.00;;;;;;5089384;28;20036;-75
2022/05/04 03:50:18;;;;;;;;;;;15.70;60.90;;;;;;5089783;28;19927;-74
2022/05/04 03:52:51;;;;;;;;;;;15.70;61.00;;;;;;5088370;28;20018;-75
2022/05/04 03:55:18;;;;;;;;;;;15.70;60.90;;;;;;5095536;28;20413;-76
2022/05/04 03:58:03;;;;;;;;;;;15.70;61.00;;;;;;5081084;28;19926;-74
2022/05/04 04:00:31;;;;;;;;;;;15.70;60.90;;;;;;5089794;28;19920;-75
2022/05/04 04:03:16;;;;;;;;;;;15.70;60.90;;;;;;5112023;28;19965;-76
2022/05/04 04:05:43;;;;;;;;;;;15.70;60.90;;;;;;5092651;28;20148;-75
2022/05/04 04:08:13;;;;;;;;;;;15.70;60.90;;;;;;5088228;28;19973;-75
2022/05/04 04:10:46;;;;;;;;;;;15.70;60.90;;;;;;5091669;27;19920;-73
2022/05/04 04:13:16;;;;;;;;;;;15.70;60.90;;;;;;5086259;28;20044;-75
2022/05/04 04:15:51;;;;;;;;;;;15.70;60.90;;;;;;5092793;28;19919;-74
2022/05/04 04:18:20;;;;;;;;;;;15.80;61.00;;;;;;5084908;28;20035;-75
2022/05/04 04:23:48;;;;;;;;;;;15.70;60.90;;;;;;5092328;27;19927;-73
2022/05/04 04:26:14;;;;;;;;;;;15.70;61.00;;;;;;5090553;28;19924;-76
2022/05/04 04:28:51;;;;;;;;;;;15.70;60.90;;;;;;5081796;28;19920;-75
2022/05/04 04:31:19;;;;;;;;;;;15.70;60.90;;;;;;5087253;28;19928;-74
2022/05/04 04:33:47;;;;;;;;;;;15.60;60.80;;;;;;5095770;27;19920;-75
2022/05/04 04:36:23;;;;;;;;;;;15.70;60.90;;;;;;5092674;28;19920;-74
2022/05/04 04:38:50;;;;;;;;;;;15.70;60.90;;;;;;5084647;28;19930;-73
2022/05/04 04:41:17;;;;;;;;;;;15.70;60.90;;;;;;5085058;28;19927;-74
2022/05/04 04:43:49;;;;;;;;;;;15.60;60.80;;;;;;5087137;28;19920;-74
2022/05/04 04:46:16;;;;;;;;;;;15.70;60.90;;;;;;5085623;28;19923;-73
2022/05/04 04:48:52;;;;;;;;;;;15.70;60.80;;;;;;5081522;28;20594;-74
2022/05/04 04:51:19;;;;;;;;;;;15.70;61.70;;;;;;5085743;28;20374;-74
2022/05/04 04:54:04;;;;;;;;;;;15.60;60.80;;;;;;5087380;28;19931;-74
2022/05/04 04:56:30;;;;;;;;;;;15.70;60.90;;;;;;5088482;28;19920;-75
2022/05/04 04:58:57;;;;;;;;;;;15.60;60.80;;;;;;5093853;28;20361;-75
2022/05/04 05:01:24;;;;;;;;;;;15.60;60.70;;;;;;5083273;28;19927;-75
2022/05/04 05:04:00;;;;;;;;;;;15.70;60.90;;;;;;5080910;28;20346;-74
2022/05/04 05:06:27;;;;;;;;;;;15.70;60.80;;;;;;5084022;28;19928;-75
2022/05/04 05:08:57;;;;;;;;;;;15.60;60.70;;;;;;5080689;28;20650;-74
2022/05/04 05:11:23;;;;;;;;;;;15.60;60.70;;;;;;5080899;28;19926;-73
2022/05/04 05:17:02;;;;;;;;;;;15.60;60.70;;;;;;5087660;28;19963;-74
2022/05/04 05:19:48;;;;;;;;;;;15.60;60.70;;;;;;5080060;28;20028;-73
2022/05/04 05:22:17;;;;;;;;;;;15.60;60.60;;;;;;5077917;28;19928;-76
2022/05/04 05:25:02;;;;;;;;;;;15.60;60.80;;;;;;5084393;28;19930;-73
2022/05/04 05:27:35;;;;;;;;;;;15.60;60.70;;;;;;5083664;28;19920;-75
2022/05/04 05:30:14;;;;;;;;;;;15.60;60.70;;;;;;5041611;28;19979;-74
2022/05/04 05:32:42;;;;;;;;;;;15.60;60.60;;;;;;5049279;28;19927;-73
2022/05/04 05:35:19;;;;;;;;;;;15.60;60.60;;;;;;5041877;28;19975;-74
2022/05/04 05:37:51;;;;;;;;;;;15.60;60.60;;;;;;5039273;28;19921;-74
2022/05/04 05:40:23;;;;;;;;;;;15.60;60.70;;;;;;5053682;28;19928;-75
2022/05/04 05:42:50;;;;;;;;;;;15.60;60.70;;;;;;5048243;28;19929;-75
2022/05/04 05:45:23;;;;;;;;;;;15.60;60.70;;;;;;5054880;28;19921;-75
2022/05/04 05:47:57;;;;;;;;;;;15.60;60.60;;;;;;5044305;28;19924;-73
2022/05/04 05:50:25;;;;;;;;;;;15.70;60.80;;;;;;5044485;28;20351;-74
2022/05/04 05:53:10;;;;;;;;;;;15.60;60.70;;;;;;5055813;28;19931;-74
2022/05/04 05:55:39;;;;;;;;;;;15.60;60.60;;;;;;5050623;28;19977;-74
2022/05/04 05:58:13;;;;;;;;;;;15.60;60.60;;;;;;5040861;28;19936;-73
2022/05/04 06:00:59;;;;;;;;;;;15.60;60.60;;;;;;5043297;28;20470;-75
2022/05/04 06:03:26;;;;;;;;;;;15.60;60.60;;;;;;5050000;28;20294;-74
2022/05/04 06:05:54;;;;;;;;;;;15.60;60.60;;;;;;5045322;28;20042;-74
2022/05/04 06:08:21;;;;;;;;;;;15.60;60.60;;;;;;5058207;28;19920;-74
2022/05/04 06:10:57;;;;;;;;;;;15.70;60.80;;;;;;5045620;28;19974;-73
2022/05/04 06:13:24;;;;;;;;;;;15.60;60.60;;;;;;5047973;28;20324;-73
2022/05/04 06:16:07;;;;;;;;;;;15.60;60.60;;;;;;5048727;28;20391;-73
2022/05/04 06:18:43;;;;;;;;;;;15.60;60.50;;;;;;5042433;28;20403;-75
2022/05/04 06:21:14;;;;;;;;;;;15.60;60.50;;;;;;5043265;28;19920;-75
2022/05/04 06:24:00;;;;;;;;;;;15.60;60.50;;;;;;5057785;28;20054;-74
2022/05/04 06:26:45;;;;;;;;;;;15.70;60.70;;;;;;5045550;28;19939;-75
2022/05/04 06:29:15;;;;;;;;;;;15.60;60.60;;;;;;5083681;28;19973;-74
2022/05/04 06:34:52;;;;;;;;;;;15.70;60.60;;;;;;5098872;28;19942;-73
2022/05/04 06:37:25;;;;;;;;;;;15.60;60.50;;;;;;5087964;28;19932;-75
2022/05/04 06:39:51;;;;;;;;;;;15.70;60.60;;;;;;5099089;27;19930;-74
2022/05/04 06:42:23;;;;;;;;;;;15.70;60.60;;;;;;5102122;28;19972;-74
2022/05/04 06:44:53;;;;;;;;;;;15.70;60.60;;;;;;5082678;28;19935;-75
2022/05/04 06:47:23;;;;;;;;;;;15.60;60.40;;;;;;5082700;28;20434;-74
2022/05/04 06:49:50;;;;;;;;;;;15.70;60.60;;;;;;5090592;28;19943;-75
2022/05/04 06:52:20;;;;;;;;;;;15.60;60.60;;;;;;5082710;27;19927;-75
2022/05/04 06:54:48;;;;;;;;;;;15.70;60.60;;;;;;5092028;27;19919;-74
2022/05/04 06:57:14;;;;;;;;;;;15.70;60.60;;;;;;5092790;28;20310;-75
2022/05/04 06:59:50;;;;;;;;;;;15.70;60.60;;;;;;5084135;27;19919;-74
2022/05/04 07:02:17;;;;;;;;;;;15.70;60.60;;;;;;5082837;28;19927;-74
2022/05/04 07:04:50;;;;;;;;;;;15.70;60.50;;;;;;5081807;28;19930;-74
2022/05/04 07:07:16;;;;;;;;;;;15.70;60.60;;;;;;5083892;28;19920;-73
2022/05/04 07:09:54;;;;;;;;;;;15.80;60.70;;;;;;5121864;27;20330;-75
2022/05/04 07:12:21;;;;;;;;;;;15.70;60.60;;;;;;5083518;28;19951;-74
2022/05/04 07:14:51;;;;;;;;;;;15.70;60.70;;;;;;5084277;27;19926;-76
2022/05/04 07:17:24;;;;;;;;;;;15.70;60.70;;;;;;5081179;28;19947;-75
2022/05/04 07:19:50;;;;;;;;;;;15.70;60.60;;;;;;5083185;27;19926;-75
2022/05/04 07:22:17;;;;;;;;;;;15.70;60.60;;;;;;5081749;28;19919;-74
2022/05/04 07:25:02;;;;;;;;;;;15.70;60.60;;;;;;5090310;28;19927;-73
2022/05/04 07:27:31;;;;;;;;;;;15.70;60.60;;;;;;5085552;27;20542;-73
2022/05/04 07:29:58;;;;;;;;;;;15.70;60.60;;;;;;5087675;28;19920;-75
2022/05/04 07:32:24;;;;;;;;;;;15.70;60.60;;;;;;5082315;28;19927;-74
2022/05/04 07:34:54;;;;;;;;;;;15.70;60.60;;;;;;5089387;28;20382;-74
2022/05/04 07:37:21;;;;;;;;;;;15.70;60.60;;;;;;5080066;28;19924;-76
2022/05/04 07:42:41;;;;;;;;;;;15.80;60.70;;;;;;5081110;28;19927;-74
2022/05/04 07:45:11;;;;;;;;;;;15.80;60.70;;;;;;5083679;28;19928;-73
2022/05/04 07:47:38;;;;;;;;;;;15.80;60.80;;;;;;5079499;28;20306;-75
2022/05/04 07:50:06;;;;;;;;;;;15.80;60.70;;;;;;5083274;28;19920;-73
2022/05/04 07:52:33;;;;;;;;;;;15.80;60.70;;;;;;5115026;27;19994;-74
2022/05/04 07:55:03;;;;;;;;;;;15.80;60.70;;;;;;5086127;28;19977;-75
2022/05/04 07:57:32;;;;;;;;;;;15.80;60.70;;;;;;5086299;28;19931;-74
2022/05/04 08:06:05;;;;;;;;;;;15.80;60.80;;;;;;5078430;28;20016;-73
2022/05/04 08:08:32;;;;;;;;;;;15.80;60.80;;;;;;5088726;28;19924;-75
2022/05/04 08:11:12;;;;;;;;;;;15.80;60.80;;;;;;5094325;28;19974;-73
2022/05/04 08:13:47;;;;;;;;;;;15.90;60.90;;;;;;5092503;28;20281;-75
2022/05/04 08:16:16;;;;;;;;;;;15.90;61.00;;;;;;5093244;28;19934;-75
2022/05/04 08:18:50;;;;;;;;;;;15.90;61.00;;;;;;5086301;28;19927;-76
2022/05/04 08:21:19;;;;;;;;;;;15.90;60.90;;;;;;5092783;28;19926;-74
2022/05/04 08:23:50;;;;;;;;;;;15.90;60.90;;;;;;5089022;28;20015;-74
2022/05/04 08:26:23;;;;;;;;;;;15.90;61.00;;;;;;5086379;28;19927;-74
2022/05/04 08:28:52;;;;;;;;;;;15.90;61.00;;;;;;5092371;28;19919;-75
2022/05/04 08:31:21;;;;;;;;;;;15.90;61.00;;;;;;5088965;28;19927;-75
2022/05/04 08:34:07;;;;;;;;;;;15.90;61.10;;;;;;5088250;27;19926;-76
2022/05/04 08:36:38;;;;;;;;;;;15.90;60.90;;;;;;5094119;28;19939;-74
2022/05/04 08:39:13;;;;;;;;;;;15.90;60.90;;;;;;5085863;28;19920;-74
2022/05/04 08:41:42;;;;;;;;;;;15.90;60.90;;;;;;5084063;28;19920;-73
2022/05/04 08:44:17;;;;;;;;;;;16.00;61.00;;;;;;5088307;28;19923;-75
2022/05/04 08:46:46;;;;;;;;;;;16.00;61.00;;;;;;5088108;28;20371;-75
2022/05/04 08:49:13;;;;;;;;;;;16.00;60.90;;;;;;5096720;28;19930;-75
2022/05/04 08:51:43;;;;;;;;;;;16.00;61.00;;;;;;5088769;28;19973;-73
2022/05/04 08:54:13;;;;;;;;;;;16.00;61.00;;;;;;5092527;28;19924;-74
2022/05/04 08:56:46;;;;;;;;;;;16.00;61.00;;;;;;5092141;28;19963;-74
2022/05/04 08:59:16;;;;;;;;;;;16.10;61.00;;;;;;5086389;28;19932;-74
2022/05/04 09:01:49;;;;;;;;;;;16.00;61.00;;;;;;5088092;28;19931;-74
2022/05/04 09:04:15;;;;;;;;;;;16.10;61.00;;;;;;5112201;27;20452;-75
2022/05/04 09:06:50;;;;;;;;;;;16.10;61.00;;;;;;5083604;28;19923;-74
2022/05/04 09:09:19;;;;;;;;;;;16.00;60.80;;;;;;5086261;28;19920;-75
2022/05/04 09:11:55;;;;;;;;;;;16.10;60.90;;;;;;5093807;28;19927;-74
2022/05/04 09:14:26;;;;;;;;;;;16.20;61.00;;;;;;5083629;28;19923;-75
2022/05/04 09:17:09;;;;;;;;;;;16.10;60.90;;;;;;5098220;28;19923;-73
2022/05/04 09:20:45;;;;;;;;;;;16.10;60.80;;;;;;5102545;28;19927;-75
2022/05/04 09:22:41;;;;;;;;;;;16.10;60.90;;;;;;5090801;28;19993;-72
2022/05/04 09:25:13;;;;;;;;;;;16.10;60.80;;;;;;5118441;27;19920;-74
2022/05/04 09:27:43;;;;;;;;;;;16.10;60.90;;;;;;5091658;28;19951;-75
2022/05/04 09:30:12;;;;;;;;;;;16.20;61.00;;;;;;5092760;28;19919;-75
2022/05/04 09:32:59;;;;;;;;;;;16.20;61.00;;;;;;5092414;27;20286;-75
2022/05/04 09:35:26;;;;;;;;;;;16.20;61.00;;;;;;5095467;28;19920;-74
2022/05/04 09:46:32;;;;;;;;;;;16.20;61.00;;;;;;5076394;28;20430;-75
2022/05/04 09:49:12;;;;;;;;;;;16.20;61.00;;;;;;5086287;28;19920;-74
2022/05/04 09:51:41;;;;;;;;;;;16.20;61.10;;;;;;5091092;28;19920;-76
2022/05/04 09:54:20;;;;;;;;;;;16.20;61.10;;;;;;5090067;28;19920;-75
2022/05/04 09:56:53;;;;;;;;;;;16.20;61.10;;;;;;5085817;28;19920;-74
2022/05/04 09:59:25;;;;;;;;;;;16.20;61.10;;;;;;5116087;27;20733;-75
2022/05/04 10:01:53;;;;;;;;;;;16.20;61.10;;;;;;5093809;28;19920;-74
2022/05/04 10:04:23;;;;;;;;;;;16.20;61.10;;;;;;5088608;27;19920;-75
2022/05/04 10:06:50;;;;;;;;;;;16.20;61.10;;;;;;5097242;28;19927;-74
2022/05/04 10:09:17;;;;;;;;;;;16.30;61.20;;;;;;5085542;28;20371;-74
2022/05/04 10:11:56;;;;;;;;;;;16.20;61.10;;;;;;5095838;28;20440;-74
2022/05/04 10:14:24;;;;;;;;;;;16.20;61.10;;;;;;5097364;28;19924;-73
2022/05/04 10:16:54;;;;;;;;;;;16.20;61.10;;;;;;5090927;28;19920;-75
2022/05/04 10:19:22;;;;;;;;;;;16.20;61.10;;;;;;5095972;27;19923;-75
2022/05/04 10:22:10;;;;;;;;;;;16.20;61.10;;;;;;5086507;28;19926;-75
2022/05/04 10:24:45;;;;;;;;;;;16.20;61.10;;;;;;5091157;27;19920;-73
2022/05/04 10:27:18;;;;;;;;;;;16.30;61.20;;;;;;5089238;28;20389;-74
2022/05/04 10:32:35;;;;;;;;;;;16.30;61.10;;;;;;5082313;28;19920;-75
2022/05/04 10:35:15;;;;;;;;;;;16.30;61.10;;;;;;5092911;28;19920;-74
2022/05/04 10:38:10;;;;;;;;;;;16.30;61.10;;;;;;5100695;28;19939;-75
2022/05/04 10:40:38;;;;;;;;;;;16.30;61.10;;;;;;5095351;28;19969;-74
2022/05/04 10:43:16;;;;;;;;;;;16.30;61.10;;;;;;5102559;28;19933;-74
2022/05/04 10:45:50;;;;;;;;;;;16.30;61.10;;;;;;5088633;27;19920;-74
2022/05/04 10:48:26;;;;;;;;;;;16.30;61.10;;;;;;5093614;28;19920;-74
2022/05/04 10:51:10;;;;;;;;;;;16.30;61.10;;;;;;5090201;27;19924;-76
2022/05/04 10:54:01;;;;;;;;;;;16.30;61.00;;;;;;5092247;27;20084;-74
2022/05/04 10:56:47;;;;;;;;;;;16.30;61.20;;;;;;5088147;27;19994;-75
2022/05/04 10:59:24;;;;;;;;;;;16.50;61.20;;;;;;5087770;28;19976;-75
2022/05/04 11:02:00;;;;;;;;;;;16.30;61.00;;;;;;5090536;28;19928;-75
2022/05/04 11:04:52;;;;;;;;;;;16.30;61.00;;;;;;5096570;27;20019;-73
2022/05/04 11:07:24;;;;;;;;;;;16.30;61.00;;;;;;5121276;27;20018;-76
2022/05/04 11:10:00;;;;;;;;;;;16.30;61.00;;;;;;5091220;27;20444;-73
2022/05/04 11:12:27;;;;;;;;;;;16.30;60.90;;;;;;5087791;28;19923;-75
2022/05/04 11:14:54;;;;;;;;;;;16.30;60.90;;;;;;5089365;28;19949;-74
2022/05/04 11:17:32;;;;;;;;;;;16.30;60.90;;;;;;5091789;28;19920;-74
2022/05/04 11:20:01;;;;;;;;;;;16.30;60.90;;;;;;5088298;28;19919;-74
2022/05/04 11:22:52;;;;;;;;;;;16.30;60.80;;;;;;5092364;28;19942;-75
2022/05/04 11:25:18;;;;;;;;;;;16.30;60.90;;;;;;5090588;28;19926;-75
2022/05/04 11:27:47;;;;;;;;;;;16.30;60.80;;;;;;5094230;28;19924;-76
2022/05/04 11:30:26;;;;;;;;;;;16.30;60.80;;;;;;5086888;27;19920;-74
2022/05/04 11:32:53;;;;;;;;;;;16.30;60.80;;;;;;5096406;28;19960;-74
2022/05/04 11:35:25;;;;;;;;;;;16.30;60.70;;;;;;5091411;27;19934;-76
2022/05/04 11:37:53;;;;;;;;;;;16.40;60.80;;;;;;5092702;27;19927;-75
2022/05/04 11:40:22;;;;;;;;;;;16.40;60.80;;;;;;5091897;27;19947;-75
2022/05/04 11:42:49;;;;;;;;;;;16.40;60.80;;;;;;5093155;28;20359;-75
2022/05/04 11:45:17;;;;;;;;;;;16.30;60.70;;;;;;5118754;27;19934;-74
2022/05/04 11:47:48;;;;;;;;;;;16.50;60.90;;;;;;5096436;28;19924;-73
2022/05/04 11:50:15;;;;;;;;;;;16.40;60.70;;;;;;5099226;28;19923;-74
2022/05/04 11:52:47;;;;;;;;;;;16.40;60.70;;;;;;5088125;28;20038;-74
2022/05/04 11:55:25;;;;;;;;;;;16.40;60.80;;;;;;5093203;28;19926;-74
2022/05/04 11:57:59;;;;;;;;;;;16.40;60.70;;;;;;5102525;28;19919;-75
2022/05/04 12:00:26;;;;;;;;;;;16.40;60.70;;;;;;5097183;28;19926;-75
2022/05/04 12:03:00;;;;;;;;;;;16.40;60.70;;;;;;5091795;28;19927;-76
2022/05/04 12:05:26;;;;;;;;;;;16.40;60.70;;;;;;5126636;27;20275;-74
2022/05/04 12:08:14;;;;;;;;;;;16.30;60.50;;;;;;5093215;28;21117;-75
2022/05/04 12:10:42;;;;;;;;;;;16.30;60.40;;;;;;5086935;28;19939;-74
2022/05/04 12:13:09;;;;;;;;;;;16.40;60.60;;;;;;5117366;27;19981;-74
2022/05/04 12:15:52;;;;;;;;;;;16.40;60.60;;;;;;5085805;28;19920;-75
2022/05/04 12:18:21;;;;;;;;;;;16.40;60.60;;;;;;5089532;28;19988;-76
2022/05/04 12:20:50;;;;;;;;;;;16.40;60.50;;;;;;5093285;28;19973;-74
2022/05/04 12:23:17;;;;;;;;;;;16.40;60.40;;;;;;5087925;28;19920;-75
2022/05/04 12:25:50;;;;;;;;;;;16.40;60.50;;;;;;5086849;28;19927;-74
2022/05/04 12:28:17;;;;;;;;;;;16.40;60.40;;;;;;5091200;28;19931;-74
2022/05/04 12:33:35;;;;;;;;;;;16.40;60.40;;;;;;5088308;28;19920;-74
2022/05/04 12:36:04;;;;;;;;;;;16.40;60.40;;;;;;5097768;28;20018;-74
2022/05/04 12:38:51;;;;;;;;;;;16.40;60.40;;;;;;5093566;27;19931;-74
2022/05/04 12:41:20;;;;;;;;;;;16.40;60.30;;;;;;5089317;28;19919;-75
2022/05/04 12:43:49;;;;;;;;;;;16.40;60.40;;;;;;5091480;28;19969;-76
2022/05/04 12:46:16;;;;;;;;;;;16.40;60.30;;;;;;5089040;28;20007;-76
2022/05/04 12:48:52;;;;;;;;;;;16.40;60.30;;;;;;5091236;28;19927;-76
2022/05/04 12:51:19;;;;;;;;;;;16.40;60.30;;;;;;5094571;28;19920;-74
2022/05/04 12:53:50;;;;;;;;;;;16.40;60.30;;;;;;5091275;28;20014;-75
2022/05/04 12:59:03;;;;;;;;;;;16.40;60.20;;;;;;5085255;28;19926;-74
2022/05/04 13:01:31;;;;;;;;;;;16.40;60.20;;;;;;5081723;28;20046;-74
2022/05/04 13:03:59;;;;;;;;;;;16.40;60.20;;;;;;5083001;28;19981;-74
2022/05/04 13:06:28;;;;;;;;;;;16.40;60.30;;;;;;5093599;28;20400;-75
2022/05/04 13:08:56;;;;;;;;;;;16.60;60.40;;;;;;5086149;28;19951;-74
2022/05/04 13:11:26;;;;;;;;;;;16.40;60.20;;;;;;5088033;28;19970;-76
2022/05/04 13:13:53;;;;;;;;;;;16.40;60.20;;;;;;5090299;28;20022;-75
2022/05/04 13:16:26;;;;;;;;;;;16.40;60.20;;;;;;5087094;28;20038;-74
2022/05/04 13:18:52;;;;;;;;;;;16.40;60.20;;;;;;5089099;28;20271;-73
2022/05/04 13:21:24;;;;;;;;;;;16.50;60.20;;;;;;5088831;28;20617;-76
2022/05/04 13:23:50;;;;;;;;;;;16.40;60.00;;;;;;5090867;28;20010;-73
2022/05/04 13:26:18;;;;;;;;;;;16.40;60.00;;;;;;5085795;28;19976;-75
2022/05/04 13:28:46;;;;;;;;;;;16.50;60.20;;;;;;5095030;28;19923;-75
2022/05/04 13:31:13;;;;;;;;;;;16.40;60.00;;;;;;5089552;28;19926;-74
2022/05/04 13:33:59;;;;;;;;;;;16.40;60.00;;;;;;5082661;28;19927;-74
2022/05/04 13:36:26;;;;;;;;;;;16.40;59.90;;;;;;5088403;28;19929;-74
2022/05/04 13:39:11;;;;;;;;;;;16.40;59.90;;;;;;5090295;28;20385;-75
2022/05/04 13:41:39;;;;;;;;;;;16.40;60.00;;;;;;5088516;28;19923;-75
2022/05/04 13:44:06;;;;;;;;;;;16.40;59.90;;;;;;5091253;28;19935;-75
2022/05/04 13:46:47;;;;;;;;;;;16.40;59.90;;;;;;5085278;28;19920;-75
2022/05/04 13:49:22;;;;;;;;;;;16.40;59.90;;;;;;5089039;28;19927;-73
2022/05/04 13:55:04;;;;;;;;;;;16.40;59.90;;;;;;5091129;28;19928;-73
2022/05/04 13:57:31;;;;;;;;;;;16.40;59.90;;;;;;5082451;28;19949;-76
2022/05/04 13:59:58;;;;;;;;;;;16.40;59.90;;;;;;5089272;28;19926;-75
2022/05/04 14:02:25;;;;;;;;;;;16.40;59.90;;;;;;5086877;28;19920;-76
2022/05/04 14:05:12;;;;;;;;;;;16.40;59.90;;;;;;5099502;27;20393;-76
2022/05/04 14:07:40;;;;;;;;;;;16.40;59.90;;;;;;5087030;28;19965;-75
2022/05/04 14:10:10;;;;;;;;;;;16.40;59.90;;;;;;5096881;28;20024;-74
2022/05/04 14:12:56;;;;;;;;;;;16.40;59.90;;;;;;5093802;28;20023;-73
2022/05/04 14:15:24;;;;;;;;;;;16.40;59.90;;;;;;5091853;28;19930;-75
2022/05/04 14:17:57;;;;;;;;;;;16.50;60.00;;;;;;5083563;28;20298;-76
2022/05/04 14:20:25;;;;;;;;;;;16.40;59.80;;;;;;5088594;28;19920;-73
2022/05/04 14:22:58;;;;;;;;;;;16.40;59.80;;;;;;5099394;28;20454;-75
2022/05/04 14:25:26;;;;;;;;;;;16.40;59.80;;;;;;5098431;27;19957;-74
2022/05/04 14:27:54;;;;;;;;;;;16.40;59.80;;;;;;5091025;28;19923;-76
2022/05/04 14:30:24;;;;;;;;;;;16.40;59.80;;;;;;5089559;28;20311;-75
2022/05/04 14:32:54;;;;;;;;;;;16.50;59.80;;;;;;5091102;28;19930;-74
2022/05/04 14:35:24;;;;;;;;;;;16.40;59.70;;;;;;5088978;27;19959;-74
2022/05/04 14:37:55;;;;;;;;;;;16.40;59.60;;;;;;5093701;28;19933;-76
2022/05/04 14:40:24;;;;;;;;;;;16.50;59.70;;;;;;5092144;27;20047;-76
2022/05/04 14:42:51;;;;;;;;;;;16.50;59.70;;;;;;5084075;28;19931;-74
2022/05/04 14:45:24;;;;;;;;;;;16.40;59.60;;;;;;5093023;28;19919;-75
2022/05/04 14:47:51;;;;;;;;;;;16.50;59.70;;;;;;5087262;28;19924;-74
2022/05/04 14:50:24;;;;;;;;;;;16.50;59.70;;;;;;5092848;28;19919;-75
2022/05/04 14:53:12;;;;;;;;;;;16.40;59.60;;;;;;5087240;27;20060;-74
2022/05/04 14:55:39;;;;;;;;;;;16.50;59.70;;;;;;5100799;27;20022;-75
2022/05/04 14:58:17;;;;;;;;;;;16.40;59.60;;;;;;5096893;28;20020;-74
2022/05/04 15:00:43;;;;;;;;;;;16.50;59.60;;;;;;5097036;27;19927;-74
2022/05/04 15:06:08;;;;;;;;;;;16.60;59.70;;;;;;5089279;28;19920;-75
2022/05/04 15:08:52;;;;;;;;;;;16.50;59.60;;;;;;5094795;28;19961;-74
2022/05/04 15:11:24;;;;;;;;;;;16.50;59.50;;;;;;5098616;27;20229;-74
2022/05/04 15:13:51;;;;;;;;;;;16.50;59.50;;;;;;5084018;28;19920;-73
2022/05/04 15:16:24;;;;;;;;;;;16.50;59.50;;;;;;5094487;27;19919;-76
2022/05/04 15:18:51;;;;;;;;;;;16.50;59.50;;;;;;5088777;28;19927;-73
2022/05/04 15:21:19;;;;;;;;;;;16.60;59.60;;;;;;5090318;28;19927;-74
2022/05/04 15:24:03;;;;;;;;;;;16.40;59.50;;;;;;5117510;27;19927;-74
2022/05/04 15:26:41;;;;;;;;;;;16.50;59.50;;;;;;5089717;28;19926;-75
2022/05/04 15:29:11;;;;;;;;;;;16.50;59.50;;;;;;5089803;28;19920;-75